sensor_id;sensor_type;location;lat;lon;timestamp;P1;durP1;ratioP1;P2;durP2;ratioP2
64903;SDS011;51401;48.882;12.598;2022-10-26T00:00:38;5.93;;;4.55;;
64903;SDS011;51401;48.882;12.598;2022-10-26T00:03:03;8.00;;;4.93;;
64903;SDS011;51401;48.882;12.598;2022-10-26T00:05:31;5.38;;;4.18;;
64903;SDS011;51401;48.882;12.598;2022-10-26T00:07:57;5.72;;;4.70;;
64903;SDS011;51401;48.882;12.598;2022-10-26T00:10:22;5.40;;;4.10;;
64903;SDS011;51401;48.882;12.598;2022-10-26T00:12:49;5.70;;;4.82;;
64903;SDS011;51401;48.882;12.598;2022-10-26T00:15:15;5.75;;;4.18;;
64903;SDS011;51401;48.882;12.598;2022-10-26T00:17:41;5.78;;;4.25;;
64903;SDS011;51401;48.882;12.598;2022-10-26T00:20:06;4.45;;;4.05;;
64903;SDS011;51401;48.882;12.598;2022-10-26T00:22:32;6.20;;;4.30;;
64903;SDS011;51401;48.882;12.598;2022-10-26T00:24:57;5.18;;;3.75;;
64903;SDS011;51401;48.882;12.598;2022-10-26T00:27:22;4.85;;;4.05;;
64903;SDS011;51401;48.882;12.598;2022-10-26T00:29:48;5.15;;;3.78;;
64903;SDS011;51401;48.882;12.598;2022-10-26T00:32:13;4.68;;;3.95;;
64903;SDS011;51401;48.882;12.598;2022-10-26T00:34:38;5.32;;;4.20;;
64903;SDS011;51401;48.882;12.598;2022-10-26T00:37:04;5.85;;;4.15;;
64903;SDS011;51401;48.882;12.598;2022-10-26T00:39:29;4.75;;;3.95;;
64903;SDS011;51401;48.882;12.598;2022-10-26T00:41:54;5.68;;;3.67;;
64903;SDS011;51401;48.882;12.598;2022-10-26T00:47:13;7.45;;;4.22;;
64903;SDS011;51401;48.882;12.598;2022-10-26T00:49:44;4.90;;;3.72;;
64903;SDS011;51401;48.882;12.598;2022-10-26T00:52:12;7.00;;;3.80;;
64903;SDS011;51401;48.882;12.598;2022-10-26T00:54:42;4.88;;;3.95;;
64903;SDS011;51401;48.882;12.598;2022-10-26T00:57:08;4.20;;;3.60;;
64903;SDS011;51401;48.882;12.598;2022-10-26T00:59:33;5.03;;;3.70;;
64903;SDS011;51401;48.882;12.598;2022-10-26T01:01:58;4.82;;;3.63;;
64903;SDS011;51401;48.882;12.598;2022-10-26T01:04:24;4.35;;;3.90;;
64903;SDS011;51401;48.882;12.598;2022-10-26T01:06:49;4.68;;;3.80;;
64903;SDS011;51401;48.882;12.598;2022-10-26T01:09:16;5.18;;;3.70;;
64903;SDS011;51401;48.882;12.598;2022-10-26T01:11:43;4.32;;;3.58;;
64903;SDS011;51401;48.882;12.598;2022-10-26T01:14:08;3.97;;;3.55;;
64903;SDS011;51401;48.882;12.598;2022-10-26T01:21:49;4.60;;;3.30;;
64903;SDS011;51401;48.882;12.598;2022-10-26T01:24:45;4.30;;;3.85;;
64903;SDS011;51401;48.882;12.598;2022-10-26T01:27:34;5.40;;;3.65;;
64903;SDS011;51401;48.882;12.598;2022-10-26T01:30:10;4.97;;;4.25;;
64903;SDS011;51401;48.882;12.598;2022-10-26T01:35:24;4.38;;;3.88;;
64903;SDS011;51401;48.882;12.598;2022-10-26T01:37:58;4.97;;;4.35;;
64903;SDS011;51401;48.882;12.598;2022-10-26T01:43:16;4.88;;;3.85;;
64903;SDS011;51401;48.882;12.598;2022-10-26T01:45:44;4.35;;;3.95;;
64903;SDS011;51401;48.882;12.598;2022-10-26T01:48:12;4.57;;;3.60;;
64903;SDS011;51401;48.882;12.598;2022-10-26T01:50:40;7.47;;;3.92;;
64903;SDS011;51401;48.882;12.598;2022-10-26T01:53:12;4.75;;;3.70;;
64903;SDS011;51401;48.882;12.598;2022-10-26T01:55:39;5.43;;;3.60;;
64903;SDS011;51401;48.882;12.598;2022-10-26T01:58:26;6.10;;;3.95;;
64903;SDS011;51401;48.882;12.598;2022-10-26T02:03:48;4.93;;;3.63;;
64903;SDS011;51401;48.882;12.598;2022-10-26T02:11:39;4.33;;;3.57;;
64903;SDS011;51401;48.882;12.598;2022-10-26T02:16:56;4.20;;;3.30;;
64903;SDS011;51401;48.882;12.598;2022-10-26T02:19:42;5.45;;;4.13;;
64903;SDS011;51401;48.882;12.598;2022-10-26T02:22:18;5.40;;;3.28;;
64903;SDS011;51401;48.882;12.598;2022-10-26T02:24:48;5.05;;;3.28;;
64903;SDS011;51401;48.882;12.598;2022-10-26T02:27:20;5.28;;;3.28;;
64903;SDS011;51401;48.882;12.598;2022-10-26T02:29:49;4.03;;;3.28;;
64903;SDS011;51401;48.882;12.598;2022-10-26T02:32:18;3.47;;;3.05;;
64903;SDS011;51401;48.882;12.598;2022-10-26T02:34:44;4.15;;;3.40;;
64903;SDS011;51401;48.882;12.598;2022-10-26T02:37:13;5.15;;;3.60;;
64903;SDS011;51401;48.882;12.598;2022-10-26T02:39:43;7.45;;;3.63;;
64903;SDS011;51401;48.882;12.598;2022-10-26T02:42:10;3.83;;;3.40;;
64903;SDS011;51401;48.882;12.598;2022-10-26T02:44:42;5.72;;;3.53;;
64903;SDS011;51401;48.882;12.598;2022-10-26T02:47:12;6.28;;;3.95;;
64903;SDS011;51401;48.882;12.598;2022-10-26T02:49:38;3.28;;;2.97;;
64903;SDS011;51401;48.882;12.598;2022-10-26T02:52:05;18.73;;;8.27;;
64903;SDS011;51401;48.882;12.598;2022-10-26T02:57:23;4.88;;;4.18;;
64903;SDS011;51401;48.882;12.598;2022-10-26T02:59:53;4.72;;;3.78;;
64903;SDS011;51401;48.882;12.598;2022-10-26T03:02:19;8.35;;;4.30;;
64903;SDS011;51401;48.882;12.598;2022-10-26T03:04:46;4.80;;;4.30;;
64903;SDS011;51401;48.882;12.598;2022-10-26T03:07:19;5.03;;;4.32;;
64903;SDS011;51401;48.882;12.598;2022-10-26T03:09:45;5.32;;;4.38;;
64903;SDS011;51401;48.882;12.598;2022-10-26T03:12:10;6.53;;;4.28;;
64903;SDS011;51401;48.882;12.598;2022-10-26T03:14:35;6.25;;;5.07;;
64903;SDS011;51401;48.882;12.598;2022-10-26T03:17:01;5.13;;;4.60;;
64903;SDS011;51401;48.882;12.598;2022-10-26T03:19:26;5.65;;;4.97;;
64903;SDS011;51401;48.882;12.598;2022-10-26T03:21:51;5.00;;;4.25;;
64903;SDS011;51401;48.882;12.598;2022-10-26T03:24:16;5.00;;;3.72;;
64903;SDS011;51401;48.882;12.598;2022-10-26T03:26:42;7.30;;;5.15;;
64903;SDS011;51401;48.882;12.598;2022-10-26T03:29:07;5.57;;;4.47;;
64903;SDS011;51401;48.882;12.598;2022-10-26T03:31:33;6.18;;;4.70;;
64903;SDS011;51401;48.882;12.598;2022-10-26T03:33:58;5.70;;;4.65;;
64903;SDS011;51401;48.882;12.598;2022-10-26T03:36:24;5.07;;;4.30;;
64903;SDS011;51401;48.882;12.598;2022-10-26T03:38:49;5.07;;;4.57;;
64903;SDS011;51401;48.882;12.598;2022-10-26T03:41:14;5.83;;;4.03;;
64903;SDS011;51401;48.882;12.598;2022-10-26T03:43:39;4.88;;;4.30;;
64903;SDS011;51401;48.882;12.598;2022-10-26T03:46:05;4.57;;;3.63;;
64903;SDS011;51401;48.882;12.598;2022-10-26T03:48:30;7.13;;;5.07;;
64903;SDS011;51401;48.882;12.598;2022-10-26T03:50:58;5.20;;;3.72;;
64903;SDS011;51401;48.882;12.598;2022-10-26T03:53:27;4.57;;;3.65;;
64903;SDS011;51401;48.882;12.598;2022-10-26T03:55:55;4.50;;;3.50;;
64903;SDS011;51401;48.882;12.598;2022-10-26T03:58:20;3.70;;;3.38;;
64903;SDS011;51401;48.882;12.598;2022-10-26T04:00:46;4.72;;;4.22;;
64903;SDS011;51401;48.882;12.598;2022-10-26T04:03:11;5.95;;;3.50;;
64903;SDS011;51401;48.882;12.598;2022-10-26T04:05:37;3.88;;;3.45;;
64903;SDS011;51401;48.882;12.598;2022-10-26T04:08:02;6.00;;;3.63;;
64903;SDS011;51401;48.882;12.598;2022-10-26T04:10:28;5.68;;;3.90;;
64903;SDS011;51401;48.882;12.598;2022-10-26T04:12:53;5.65;;;3.60;;
64903;SDS011;51401;48.882;12.598;2022-10-26T04:15:19;5.38;;;3.35;;
64903;SDS011;51401;48.882;12.598;2022-10-26T04:17:45;4.65;;;3.90;;
64903;SDS011;51401;48.882;12.598;2022-10-26T04:20:11;6.88;;;4.13;;
64903;SDS011;51401;48.882;12.598;2022-10-26T04:22:37;7.28;;;4.07;;
64903;SDS011;51401;48.882;12.598;2022-10-26T04:25:03;6.40;;;4.25;;
64903;SDS011;51401;48.882;12.598;2022-10-26T04:27:29;4.45;;;3.88;;
64903;SDS011;51401;48.882;12.598;2022-10-26T04:29:54;4.32;;;3.92;;
64903;SDS011;51401;48.882;12.598;2022-10-26T04:32:19;5.30;;;4.00;;
64903;SDS011;51401;48.882;12.598;2022-10-26T04:34:45;4.43;;;3.92;;
64903;SDS011;51401;48.882;12.598;2022-10-26T04:37:10;6.25;;;4.80;;
64903;SDS011;51401;48.882;12.598;2022-10-26T04:39:35;5.45;;;4.57;;
64903;SDS011;51401;48.882;12.598;2022-10-26T04:42:01;5.15;;;4.60;;
64903;SDS011;51401;48.882;12.598;2022-10-26T04:44:26;6.47;;;4.03;;
64903;SDS011;51401;48.882;12.598;2022-10-26T04:46:51;6.17;;;4.67;;
64903;SDS011;51401;48.882;12.598;2022-10-26T04:49:16;5.78;;;4.43;;
64903;SDS011;51401;48.882;12.598;2022-10-26T04:51:42;5.35;;;4.20;;
64903;SDS011;51401;48.882;12.598;2022-10-26T04:54:07;5.95;;;4.20;;
64903;SDS011;51401;48.882;12.598;2022-10-26T04:56:32;4.93;;;4.30;;
64903;SDS011;51401;48.882;12.598;2022-10-26T04:58:58;5.30;;;4.03;;
64903;SDS011;51401;48.882;12.598;2022-10-26T05:01:24;4.43;;;4.00;;
64903;SDS011;51401;48.882;12.598;2022-10-26T05:03:49;5.65;;;4.18;;
64903;SDS011;51401;48.882;12.598;2022-10-26T05:06:16;7.28;;;3.88;;
64903;SDS011;51401;48.882;12.598;2022-10-26T05:08:41;4.22;;;3.70;;
64903;SDS011;51401;48.882;12.598;2022-10-26T05:11:07;5.45;;;4.07;;
64903;SDS011;51401;48.882;12.598;2022-10-26T05:13:32;6.38;;;4.65;;
64903;SDS011;51401;48.882;12.598;2022-10-26T05:15:58;6.07;;;5.15;;
64903;SDS011;51401;48.882;12.598;2022-10-26T05:18:23;5.85;;;4.47;;
64903;SDS011;51401;48.882;12.598;2022-10-26T05:20:51;6.05;;;4.05;;
64903;SDS011;51401;48.882;12.598;2022-10-26T05:23:17;5.60;;;4.60;;
64903;SDS011;51401;48.882;12.598;2022-10-26T05:25:43;5.65;;;4.55;;
64903;SDS011;51401;48.882;12.598;2022-10-26T05:28:09;5.57;;;4.30;;
64903;SDS011;51401;48.882;12.598;2022-10-26T05:30:37;5.45;;;4.50;;
64903;SDS011;51401;48.882;12.598;2022-10-26T05:33:03;7.60;;;4.65;;
64903;SDS011;51401;48.882;12.598;2022-10-26T05:35:30;8.10;;;6.18;;
64903;SDS011;51401;48.882;12.598;2022-10-26T05:37:56;8.68;;;5.85;;
64903;SDS011;51401;48.882;12.598;2022-10-26T05:40:22;10.18;;;5.47;;
64903;SDS011;51401;48.882;12.598;2022-10-26T05:42:48;8.18;;;6.00;;
64903;SDS011;51401;48.882;12.598;2022-10-26T05:45:14;6.45;;;5.40;;
64903;SDS011;51401;48.882;12.598;2022-10-26T05:47:42;6.47;;;5.75;;
64903;SDS011;51401;48.882;12.598;2022-10-26T05:50:08;6.47;;;5.38;;
64903;SDS011;51401;48.882;12.598;2022-10-26T05:52:42;6.13;;;4.47;;
64903;SDS011;51401;48.882;12.598;2022-10-26T05:55:09;5.85;;;4.75;;
64903;SDS011;51401;48.882;12.598;2022-10-26T05:57:36;5.63;;;5.07;;
64903;SDS011;51401;48.882;12.598;2022-10-26T06:00:05;6.10;;;4.93;;
64903;SDS011;51401;48.882;12.598;2022-10-26T06:02:35;5.65;;;4.07;;
64903;SDS011;51401;48.882;12.598;2022-10-26T06:05:25;6.30;;;4.47;;
64903;SDS011;51401;48.882;12.598;2022-10-26T06:07:52;5.85;;;4.95;;
64903;SDS011;51401;48.882;12.598;2022-10-26T06:10:18;5.50;;;4.47;;
64903;SDS011;51401;48.882;12.598;2022-10-26T06:12:44;6.38;;;5.05;;
64903;SDS011;51401;48.882;12.598;2022-10-26T06:15:28;6.75;;;5.55;;
64903;SDS011;51401;48.882;12.598;2022-10-26T06:21:00;7.03;;;5.47;;
64903;SDS011;51401;48.882;12.598;2022-10-26T06:23:39;7.20;;;5.18;;
64903;SDS011;51401;48.882;12.598;2022-10-26T06:26:16;6.40;;;5.72;;
64903;SDS011;51401;48.882;12.598;2022-10-26T06:31:13;6.85;;;5.50;;
64903;SDS011;51401;48.882;12.598;2022-10-26T06:33:39;9.48;;;5.07;;
64903;SDS011;51401;48.882;12.598;2022-10-26T06:38:47;6.65;;;4.70;;
64903;SDS011;51401;48.882;12.598;2022-10-26T06:41:17;9.18;;;6.68;;
64903;SDS011;51401;48.882;12.598;2022-10-26T06:43:44;6.95;;;5.70;;
64903;SDS011;51401;48.882;12.598;2022-10-26T06:49:01;7.38;;;6.22;;
64903;SDS011;51401;48.882;12.598;2022-10-26T06:51:40;8.77;;;6.03;;
64903;SDS011;51401;48.882;12.598;2022-10-26T06:54:12;7.10;;;5.75;;
64903;SDS011;51401;48.882;12.598;2022-10-26T06:56:42;7.40;;;5.30;;
64903;SDS011;51401;48.882;12.598;2022-10-26T07:02:07;6.43;;;5.57;;
64903;SDS011;51401;48.882;12.598;2022-10-26T07:04:33;7.10;;;5.05;;
64903;SDS011;51401;48.882;12.598;2022-10-26T07:06:59;6.60;;;5.22;;
64903;SDS011;51401;48.882;12.598;2022-10-26T07:09:24;7.35;;;4.90;;
64903;SDS011;51401;48.882;12.598;2022-10-26T07:11:49;5.70;;;4.63;;
64903;SDS011;51401;48.882;12.598;2022-10-26T07:14:14;7.55;;;5.45;;
64903;SDS011;51401;48.882;12.598;2022-10-26T07:16:40;5.88;;;5.25;;
64903;SDS011;51401;48.882;12.598;2022-10-26T07:19:05;7.97;;;5.50;;
64903;SDS011;51401;48.882;12.598;2022-10-26T07:21:30;6.80;;;5.22;;
64903;SDS011;51401;48.882;12.598;2022-10-26T07:23:56;10.15;;;6.45;;
64903;SDS011;51401;48.882;12.598;2022-10-26T07:26:21;8.25;;;6.25;;
64903;SDS011;51401;48.882;12.598;2022-10-26T07:28:49;7.55;;;6.03;;
64903;SDS011;51401;48.882;12.598;2022-10-26T07:31:14;7.88;;;6.80;;
64903;SDS011;51401;48.882;12.598;2022-10-26T07:33:40;9.43;;;6.60;;
64903;SDS011;51401;48.882;12.598;2022-10-26T07:36:06;9.15;;;5.78;;
64903;SDS011;51401;48.882;12.598;2022-10-26T07:38:34;6.40;;;5.55;;
64903;SDS011;51401;48.882;12.598;2022-10-26T07:41:00;10.38;;;6.00;;
64903;SDS011;51401;48.882;12.598;2022-10-26T07:43:26;7.03;;;5.20;;
64903;SDS011;51401;48.882;12.598;2022-10-26T07:45:51;6.90;;;5.85;;
64903;SDS011;51401;48.882;12.598;2022-10-26T07:48:17;7.90;;;5.82;;
64903;SDS011;51401;48.882;12.598;2022-10-26T07:50:42;9.82;;;6.68;;
64903;SDS011;51401;48.882;12.598;2022-10-26T07:53:09;6.05;;;5.40;;
64903;SDS011;51401;48.882;12.598;2022-10-26T07:55:34;7.15;;;5.13;;
64903;SDS011;51401;48.882;12.598;2022-10-26T07:57:59;9.68;;;5.38;;
64903;SDS011;51401;48.882;12.598;2022-10-26T08:00:25;7.25;;;5.95;;
64903;SDS011;51401;48.882;12.598;2022-10-26T08:02:50;6.68;;;5.13;;
64903;SDS011;51401;48.882;12.598;2022-10-26T08:05:16;6.45;;;5.25;;
64903;SDS011;51401;48.882;12.598;2022-10-26T08:07:42;7.03;;;5.10;;
64903;SDS011;51401;48.882;12.598;2022-10-26T08:10:09;9.07;;;5.43;;
64903;SDS011;51401;48.882;12.598;2022-10-26T08:12:35;8.00;;;6.00;;
64903;SDS011;51401;48.882;12.598;2022-10-26T08:15:00;6.50;;;4.95;;
64903;SDS011;51401;48.882;12.598;2022-10-26T08:17:27;6.00;;;5.40;;
64903;SDS011;51401;48.882;12.598;2022-10-26T08:19:52;6.93;;;5.32;;
64903;SDS011;51401;48.882;12.598;2022-10-26T08:22:18;6.82;;;5.47;;
64903;SDS011;51401;48.882;12.598;2022-10-26T08:24:43;7.57;;;5.47;;
64903;SDS011;51401;48.882;12.598;2022-10-26T08:27:10;7.78;;;5.82;;
64903;SDS011;51401;48.882;12.598;2022-10-26T08:29:36;7.78;;;5.78;;
64903;SDS011;51401;48.882;12.598;2022-10-26T08:32:01;9.75;;;5.80;;
64903;SDS011;51401;48.882;12.598;2022-10-26T08:34:26;7.97;;;6.55;;
64903;SDS011;51401;48.882;12.598;2022-10-26T08:36:52;8.38;;;6.40;;
64903;SDS011;51401;48.882;12.598;2022-10-26T08:39:17;7.17;;;6.33;;
64903;SDS011;51401;48.882;12.598;2022-10-26T08:41:43;9.23;;;6.28;;
64903;SDS011;51401;48.882;12.598;2022-10-26T08:47:00;7.60;;;6.05;;
64903;SDS011;51401;48.882;12.598;2022-10-26T08:52:24;6.97;;;5.80;;
64903;SDS011;51401;48.882;12.598;2022-10-26T08:54:54;7.38;;;5.25;;
64903;SDS011;51401;48.882;12.598;2022-10-26T09:02:22;6.28;;;5.47;;
64903;SDS011;51401;48.882;12.598;2022-10-26T09:04:48;6.07;;;5.00;;
64903;SDS011;51401;48.882;12.598;2022-10-26T09:07:33;7.80;;;5.47;;
64903;SDS011;51401;48.882;12.598;2022-10-26T09:10:49;7.47;;;5.68;;
64903;SDS011;51401;48.882;12.598;2022-10-26T09:13:37;6.60;;;5.65;;
64903;SDS011;51401;48.882;12.598;2022-10-26T09:19:16;7.82;;;5.20;;
64903;SDS011;51401;48.882;12.598;2022-10-26T09:24:41;8.27;;;6.07;;
64903;SDS011;51401;48.882;12.598;2022-10-26T09:27:34;6.82;;;5.78;;
64903;SDS011;51401;48.882;12.598;2022-10-26T09:30:12;8.90;;;5.95;;
64903;SDS011;51401;48.882;12.598;2022-10-26T09:32:47;6.75;;;5.50;;
64903;SDS011;51401;48.882;12.598;2022-10-26T09:37:53;7.10;;;5.75;;
64903;SDS011;51401;48.882;12.598;2022-10-26T09:41:08;7.75;;;6.25;;
64903;SDS011;51401;48.882;12.598;2022-10-26T09:43:17;7.28;;;6.15;;
64903;SDS011;51401;48.882;12.598;2022-10-26T09:45:56;8.85;;;6.10;;
64903;SDS011;51401;48.882;12.598;2022-10-26T09:50:52;6.47;;;5.75;;
64903;SDS011;51401;48.882;12.598;2022-10-26T09:53:18;7.20;;;5.07;;
64903;SDS011;51401;48.882;12.598;2022-10-26T09:55:44;6.25;;;5.38;;
64903;SDS011;51401;48.882;12.598;2022-10-26T09:58:22;9.02;;;5.85;;
64903;SDS011;51401;48.882;12.598;2022-10-26T10:00:52;5.82;;;4.80;;
64903;SDS011;51401;48.882;12.598;2022-10-26T10:03:30;8.35;;;5.80;;
64903;SDS011;51401;48.882;12.598;2022-10-26T10:09:03;5.70;;;5.10;;
64903;SDS011;51401;48.882;12.598;2022-10-26T10:11:37;8.00;;;5.03;;
64903;SDS011;51401;48.882;12.598;2022-10-26T10:14:08;10.30;;;5.75;;
64903;SDS011;51401;48.882;12.598;2022-10-26T10:16:39;7.85;;;5.78;;
64903;SDS011;51401;48.882;12.598;2022-10-26T10:19:09;7.82;;;6.30;;
64903;SDS011;51401;48.882;12.598;2022-10-26T10:21:50;7.93;;;6.00;;
64903;SDS011;51401;48.882;12.598;2022-10-26T10:24:20;8.07;;;5.72;;
64903;SDS011;51401;48.882;12.598;2022-10-26T10:27:00;8.50;;;5.72;;
64903;SDS011;51401;48.882;12.598;2022-10-26T10:29:29;8.65;;;5.32;;
64903;SDS011;51401;48.882;12.598;2022-10-26T10:32:00;6.93;;;5.72;;
64903;SDS011;51401;48.882;12.598;2022-10-26T10:36:54;5.55;;;4.65;;
64903;SDS011;51401;48.882;12.598;2022-10-26T10:39:30;5.32;;;4.75;;
64903;SDS011;51401;48.882;12.598;2022-10-26T10:41:59;5.03;;;4.50;;
64903;SDS011;51401;48.882;12.598;2022-10-26T10:44:25;5.38;;;4.63;;
64903;SDS011;51401;48.882;12.598;2022-10-26T10:47:02;5.20;;;3.78;;
64903;SDS011;51401;48.882;12.598;2022-10-26T10:49:29;6.05;;;4.22;;
64903;SDS011;51401;48.882;12.598;2022-10-26T10:51:55;7.25;;;5.03;;
64903;SDS011;51401;48.882;12.598;2022-10-26T10:54:25;6.45;;;4.55;;
64903;SDS011;51401;48.882;12.598;2022-10-26T11:02:15;5.10;;;4.57;;
64903;SDS011;51401;48.882;12.598;2022-10-26T11:04:48;6.67;;;4.40;;
64903;SDS011;51401;48.882;12.598;2022-10-26T11:07:23;5.60;;;3.90;;
64903;SDS011;51401;48.882;12.598;2022-10-26T11:09:50;5.15;;;4.18;;
64903;SDS011;51401;48.882;12.598;2022-10-26T11:12:20;6.80;;;4.63;;
64903;SDS011;51401;48.882;12.598;2022-10-26T11:14:52;7.47;;;4.65;;
64903;SDS011;51401;48.882;12.598;2022-10-26T11:17:26;4.70;;;4.15;;
64903;SDS011;51401;48.882;12.598;2022-10-26T11:19:56;6.22;;;4.60;;
64903;SDS011;51401;48.882;12.598;2022-10-26T11:22:27;5.65;;;4.55;;
64903;SDS011;51401;48.882;12.598;2022-10-26T11:25:02;6.70;;;5.05;;
64903;SDS011;51401;48.882;12.598;2022-10-26T11:28:09;5.63;;;4.85;;
64903;SDS011;51401;48.882;12.598;2022-10-26T11:30:29;6.03;;;4.50;;
64903;SDS011;51401;48.882;12.598;2022-10-26T11:33:06;7.45;;;5.07;;
64903;SDS011;51401;48.882;12.598;2022-10-26T11:35:51;5.65;;;5.05;;
64903;SDS011;51401;48.882;12.598;2022-10-26T11:49:44;6.28;;;4.93;;
64903;SDS011;51401;48.882;12.598;2022-10-26T11:52:18;6.15;;;4.60;;
64903;SDS011;51401;48.882;12.598;2022-10-26T11:54:52;6.13;;;4.68;;
64903;SDS011;51401;48.882;12.598;2022-10-26T11:57:22;7.82;;;5.65;;
64903;SDS011;51401;48.882;12.598;2022-10-26T11:59:57;8.13;;;4.95;;
64903;SDS011;51401;48.882;12.598;2022-10-26T12:02:25;5.18;;;4.40;;
64903;SDS011;51401;48.882;12.598;2022-10-26T12:05:31;6.10;;;4.72;;
64903;SDS011;51401;48.882;12.598;2022-10-26T12:07:59;7.90;;;5.05;;
64903;SDS011;51401;48.882;12.598;2022-10-26T12:10:49;7.37;;;5.30;;
64903;SDS011;51401;48.882;12.598;2022-10-26T12:16:39;7.43;;;5.38;;
64903;SDS011;51401;48.882;12.598;2022-10-26T12:21:55;16.25;;;10.48;;
64903;SDS011;51401;48.882;12.598;2022-10-26T12:26:49;6.13;;;4.80;;
64903;SDS011;51401;48.882;12.598;2022-10-26T12:31:57;5.95;;;4.88;;
64903;SDS011;51401;48.882;12.598;2022-10-26T12:34:23;9.77;;;5.47;;
64903;SDS011;51401;48.882;12.598;2022-10-26T12:44:36;6.28;;;4.70;;
64903;SDS011;51401;48.882;12.598;2022-10-26T12:47:09;7.40;;;4.60;;
64903;SDS011;51401;48.882;12.598;2022-10-26T12:57:54;10.90;;;7.82;;
64903;SDS011;51401;48.882;12.598;2022-10-26T13:00:23;6.90;;;5.45;;
64903;SDS011;51401;48.882;12.598;2022-10-26T13:08:55;9.60;;;6.38;;
64903;SDS011;51401;48.882;12.598;2022-10-26T13:14:05;8.10;;;5.82;;
64903;SDS011;51401;48.882;12.598;2022-10-26T13:16:32;8.40;;;5.70;;
64903;SDS011;51401;48.882;12.598;2022-10-26T13:18:58;11.90;;;7.72;;
64903;SDS011;51401;48.882;12.598;2022-10-26T13:21:24;13.65;;;8.38;;
64903;SDS011;51401;48.882;12.598;2022-10-26T13:26:20;8.60;;;6.00;;
64903;SDS011;51401;48.882;12.598;2022-10-26T13:33:53;8.77;;;4.95;;
64903;SDS011;51401;48.882;12.598;2022-10-26T13:39:08;5.97;;;5.15;;
64903;SDS011;51401;48.882;12.598;2022-10-26T13:41:46;7.72;;;5.05;;
64903;SDS011;51401;48.882;12.598;2022-10-26T13:44:22;8.95;;;5.78;;
64903;SDS011;51401;48.882;12.598;2022-10-26T13:46:52;10.57;;;7.05;;
64903;SDS011;51401;48.882;12.598;2022-10-26T13:49:22;10.68;;;7.57;;
64903;SDS011;51401;48.882;12.598;2022-10-26T13:51:51;8.52;;;7.32;;
64903;SDS011;51401;48.882;12.598;2022-10-26T13:54:26;9.68;;;5.97;;
64903;SDS011;51401;48.882;12.598;2022-10-26T13:57:01;5.47;;;4.93;;
64903;SDS011;51401;48.882;12.598;2022-10-26T13:59:36;7.80;;;5.65;;
64903;SDS011;51401;48.882;12.598;2022-10-26T14:02:24;6.45;;;5.50;;
64903;SDS011;51401;48.882;12.598;2022-10-26T14:05:01;7.32;;;5.22;;
64903;SDS011;51401;48.882;12.598;2022-10-26T14:13:07;6.18;;;4.35;;
64903;SDS011;51401;48.882;12.598;2022-10-26T14:15:37;5.50;;;4.38;;
64903;SDS011;51401;48.882;12.598;2022-10-26T14:18:02;5.00;;;4.18;;
64903;SDS011;51401;48.882;12.598;2022-10-26T14:20:29;4.57;;;4.18;;
64903;SDS011;51401;48.882;12.598;2022-10-26T14:22:55;6.63;;;4.38;;
64903;SDS011;51401;48.882;12.598;2022-10-26T14:25:25;7.15;;;4.28;;
64903;SDS011;51401;48.882;12.598;2022-10-26T14:27:51;4.40;;;4.00;;
64903;SDS011;51401;48.882;12.598;2022-10-26T14:30:29;5.30;;;4.15;;
64903;SDS011;51401;48.882;12.598;2022-10-26T14:32:56;5.25;;;4.75;;
64903;SDS011;51401;48.882;12.598;2022-10-26T14:35:31;4.93;;;4.32;;
64903;SDS011;51401;48.882;12.598;2022-10-26T14:38:04;4.90;;;4.25;;
64903;SDS011;51401;48.882;12.598;2022-10-26T14:40:34;8.23;;;4.70;;
64903;SDS011;51401;48.882;12.598;2022-10-26T14:43:00;5.88;;;4.30;;
64903;SDS011;51401;48.882;12.598;2022-10-26T14:45:29;6.32;;;4.30;;
64903;SDS011;51401;48.882;12.598;2022-10-26T14:47:57;7.35;;;4.50;;
64903;SDS011;51401;48.882;12.598;2022-10-26T14:50:24;5.45;;;4.72;;
64903;SDS011;51401;48.882;12.598;2022-10-26T14:52:55;9.30;;;4.63;;
64903;SDS011;51401;48.882;12.598;2022-10-26T14:55:23;5.55;;;5.03;;
64903;SDS011;51401;48.882;12.598;2022-10-26T14:57:51;5.00;;;4.50;;
64903;SDS011;51401;48.882;12.598;2022-10-26T15:00:26;8.07;;;4.90;;
64903;SDS011;51401;48.882;12.598;2022-10-26T15:02:55;6.60;;;4.88;;
64903;SDS011;51401;48.882;12.598;2022-10-26T15:07:47;9.27;;;4.90;;
64903;SDS011;51401;48.882;12.598;2022-10-26T15:16:08;7.80;;;7.00;;
64903;SDS011;51401;48.882;12.598;2022-10-26T15:18:40;5.50;;;4.80;;
64903;SDS011;51401;48.882;12.598;2022-10-26T15:21:15;7.93;;;4.22;;
64903;SDS011;51401;48.882;12.598;2022-10-26T15:23:46;5.97;;;4.05;;
64903;SDS011;51401;48.882;12.598;2022-10-26T15:26:12;4.50;;;3.75;;
64903;SDS011;51401;48.882;12.598;2022-10-26T15:28:38;7.45;;;4.10;;
64903;SDS011;51401;48.882;12.598;2022-10-26T15:33:36;5.40;;;4.05;;
64903;SDS011;51401;48.882;12.598;2022-10-26T15:38:31;6.00;;;4.30;;
64903;SDS011;51401;48.882;12.598;2022-10-26T15:40:56;4.80;;;4.30;;
64903;SDS011;51401;48.882;12.598;2022-10-26T15:43:22;5.00;;;3.92;;
64903;SDS011;51401;48.882;12.598;2022-10-26T15:45:47;5.05;;;3.90;;
64903;SDS011;51401;48.882;12.598;2022-10-26T15:48:16;7.88;;;4.38;;
64903;SDS011;51401;48.882;12.598;2022-10-26T15:50:46;6.53;;;4.45;;
64903;SDS011;51401;48.882;12.598;2022-10-26T15:53:19;6.70;;;4.63;;
64903;SDS011;51401;48.882;12.598;2022-10-26T15:55:46;6.90;;;5.63;;
64903;SDS011;51401;48.882;12.598;2022-10-26T15:58:13;7.28;;;5.90;;
64903;SDS011;51401;48.882;12.598;2022-10-26T16:00:39;7.03;;;5.53;;
64903;SDS011;51401;48.882;12.598;2022-10-26T16:03:04;6.35;;;4.95;;
64903;SDS011;51401;48.882;12.598;2022-10-26T16:05:30;8.10;;;4.80;;
64903;SDS011;51401;48.882;12.598;2022-10-26T16:07:55;7.25;;;4.70;;
64903;SDS011;51401;48.882;12.598;2022-10-26T16:10:21;7.97;;;4.72;;
64903;SDS011;51401;48.882;12.598;2022-10-26T16:12:48;6.75;;;4.90;;
64903;SDS011;51401;48.882;12.598;2022-10-26T16:15:18;7.47;;;4.90;;
64903;SDS011;51401;48.882;12.598;2022-10-26T16:17:45;4.95;;;4.43;;
64903;SDS011;51401;48.882;12.598;2022-10-26T16:20:15;5.65;;;4.13;;
64903;SDS011;51401;48.882;12.598;2022-10-26T16:22:42;8.18;;;4.70;;
64903;SDS011;51401;48.882;12.598;2022-10-26T16:25:12;6.63;;;4.90;;
64903;SDS011;51401;48.882;12.598;2022-10-26T16:27:38;8.35;;;5.80;;
64903;SDS011;51401;48.882;12.598;2022-10-26T16:30:04;5.82;;;5.28;;
64903;SDS011;51401;48.882;12.598;2022-10-26T16:32:30;10.88;;;8.35;;
64903;SDS011;51401;48.882;12.598;2022-10-26T16:34:55;13.97;;;7.90;;
64903;SDS011;51401;48.882;12.598;2022-10-26T16:37:20;7.78;;;6.45;;
64903;SDS011;51401;48.882;12.598;2022-10-26T16:39:45;9.15;;;6.40;;
64903;SDS011;51401;48.882;12.598;2022-10-26T16:42:11;9.17;;;6.50;;
64903;SDS011;51401;48.882;12.598;2022-10-26T16:44:36;8.30;;;7.28;;
64903;SDS011;51401;48.882;12.598;2022-10-26T16:47:02;8.82;;;7.93;;
64903;SDS011;51401;48.882;12.598;2022-10-26T16:49:27;8.63;;;6.95;;
64903;SDS011;51401;48.882;12.598;2022-10-26T16:51:52;8.48;;;7.28;;
64903;SDS011;51401;48.882;12.598;2022-10-26T16:54:18;9.32;;;6.68;;
64903;SDS011;51401;48.882;12.598;2022-10-26T16:56:43;8.70;;;7.10;;
64903;SDS011;51401;48.882;12.598;2022-10-26T16:59:08;9.13;;;7.80;;
64903;SDS011;51401;48.882;12.598;2022-10-26T17:01:34;15.05;;;12.85;;
64903;SDS011;51401;48.882;12.598;2022-10-26T17:03:59;11.98;;;9.32;;
64903;SDS011;51401;48.882;12.598;2022-10-26T17:06:25;10.68;;;8.60;;
64903;SDS011;51401;48.882;12.598;2022-10-26T17:08:51;7.63;;;6.75;;
64903;SDS011;51401;48.882;12.598;2022-10-26T17:11:19;13.60;;;10.25;;
64903;SDS011;51401;48.882;12.598;2022-10-26T17:13:45;12.73;;;10.85;;